Terminal Aerodrome Forecast
Issued by NWS Charleston, WV

Current Version | Previous Version | Graphics & Text | Print | Product List | Glossary On
Versions: 1 2 3 4 5 6 7 8 9 10 11 12 13 14 15 16 17 18 19 20 21 22 23 24 25 26 27 28 29 30 31 32 33
000
FTUS41 KRLX 010200 CCA
TAFHTS
TAF COR
KHTS 010205Z 0102/0124 19005KT P6SM -RA SCT030 OVC040
      TEMPO 0102/0104 2SM SHRA BR BKN015
     FM010400 20005KT P6SM OVC035
     FM011600 22007KT P6SM BKN030
     FM012000 22007KT P6SM SCT035=

USA.gov is the U.S. government's official web portal to all federal, state and local government web resources and services.